CST,Max TemperatureF,Mean TemperatureF,Min TemperatureF,Max Dew PointF,MeanDew PointF,Min DewpointF,Max Humidity, Mean Humidity, Min Humidity, Max Sea Level PressureIn, Mean Sea Level PressureIn, Min Sea Level PressureIn, Max VisibilityMiles, Mean VisibilityMiles, Min VisibilityMiles, Max Wind SpeedMPH, Mean Wind SpeedMPH, Max Gust SpeedMPH,PrecipitationIn, CloudCover, Events, WindDirDegrees
2012-12-1,33,30,28,34,30,27,100,95,87,30.01,29.81,29.72,7,3,0,9,4,,0.00,8,Fog,158
2012-12-2,35,32,30,36,32,30,100,97,93,29.94,29.84,29.68,10,3,0,9,2,17,0.00,8,Fog,158
2012-12-3,44,34,24,43,36,23,100,95,87,29.71,29.54,29.41,10,7,2,14,10,30,0.01,6,Rain,198
2012-12-4,23,16,10,21,15,9,100,94,86,30.38,30.08,29.72,10,8,5,13,8,26,0.00,8,Snow,275
2012-12-5,30,18,5,19,14,3,100,78,64,30.39,30.12,29.75,10,10,10,10,3,18,0.00,1,,153
2012-12-6,35,28,21,34,25,19,100,88,60,29.92,29.75,29.62,10,10,5,13,7,21,0.00,7,Rain,244
2012-12-7,21,14,3,19,12,0,93,85,73,30.09,30.02,29.92,10,10,5,8,3,,0.00,7,Snow,299
2012-12-8,19,8,-2,18,6,-6,93,84,73,30.11,30.07,30.04,10,8,2,0,0,,0.00,5,Snow,-1
2012-12-9,19,12,6,18,12,3,93,90,85,30.19,30.13,30.04,10,3,1,8,3,,0.01,8,Snow,347
2012-12-10,17,2,-14,9,-5,-18,92,82,67,30.04,29.90,29.76,10,9,2,7,2,,0.00,1,Snow,334
2012-12-11,14,2,-9,10,2,-15,92,87,77,29.98,29.78,29.69,10,7,1,7,1,,0.00,7,Snow,268
2012-12-12,21,7,-7,19,6,-11,93,88,78,30.00,29.92,29.81,10,10,10,4,0,,0.02,6,,111
2012-12-13,19,16,12,18,14,10,93,90,86,30.13,30.04,29.92,10,10,10,7,2,,0.00,8,Snow,323
2012-12-14,30,18,6,25,17,3,93,87,64,30.14,30.05,29.90,10,10,7,7,1,,0.00,5,,149
2012-12-15,33,28,23,34,28,21,100,96,86,29.89,29.69,29.57,10,4,0,0,0,,0.32,6,Rain-Snow,-1
2012-12-16,30,24,19,30,22,18,100,96,93,29.75,29.67,29.56,10,6,0,7,2,,0.01,8,Snow,311
2012-12-17,21,18,15,19,17,12,100,94,86,29.74,29.71,29.66,10,10,4,5,1,,0.00,8,Snow,290
2012-12-18,21,16,12,21,16,12,100,96,86,29.77,29.72,29.69,10,9,2,4,0,,0.00,8,Snow,195
2012-12-19,28,24,19,28,23,19,100,96,93,29.99,29.87,29.77,10,7,1,6,1,,0.00,8,Snow,199
2012-12-20,21,12,3,19,14,1,100,96,85,30.09,30.02,29.97,10,8,2,10,4,18,0.00,8,Snow,333
2012-12-21,14,4,-7,12,-2,-11,93,89,84,30.25,30.18,30.09,10,10,7,6,3,,0.00,0,,325
2012-12-22,15,5,-5,12,4,-9,100,91,84,30.13,30.04,29.96,10,8,2,10,2,,0.00,4,Snow,329
2012-12-23,15,3,-9,12,0,-13,92,90,84,30.16,30.12,30.08,10,9,5,7,2,,0.00,2,Snow,316
2012-12-24,1,-5,-11,-2,-8,-15,92,87,77,30.29,30.16,30.08,10,10,5,7,3,,0.00,6,Snow,318
2012-12-25,0,-8,-16,-2,-13,-20,92,85,77,30.45,30.39,30.29,10,10,3,5,1,,0.00,6,Snow,271
2012-12-26,6,-6,-18,3,-9,-20,92,86,77,30.39,30.34,30.22,10,9,2,4,0,,0.00,1,Snow,310
2012-12-27,15,0,-14,12,-3,-18,92,87,73,30.30,30.25,30.17,10,9,2,0,0,,0.00,5,Snow,-1
2012-12-28,21,10,0,19,6,-2,100,92,85,30.17,30.09,30.00,10,5,0,0,0,,0.01,8,Snow,-1
2012-12-29,17,10,3,16,8,1,100,93,85,30.05,29.99,29.95,10,5,1,6,0,,0.00,8,Snow,258
2012-12-30,17,8,-2,16,6,-6,100,90,85,30.08,29.95,29.83,10,8,1,12,2,20,0.00,6,Snow,184
2012-12-31,10,-4,-18,9,-6,-24,92,84,76,30.20,30.12,29.91,10,10,2,12,5,18,0.00,2,Snow,316